Time;durP1;ratioP1;P1;durP2;ratioP2;P2;SDS_P1;SDS_P2;PMS_P1;PMS_P2;Temp;Humidity;BMP_temperature;BMP_pressure;BME280_temperature;BME280_humidity;BME280_pressure;Samples;Min_cycle;Max_cycle;Signal;HPM_P1;HPM_P2
2023/09/10 00:02:25;;;;;;;14.30;12.43;;;18.00;1.00;;;;;;5119950;28;20459;-60
2023/09/10 00:04:52;;;;;;;14.63;13.17;;;17.90;98.20;;;;;;5119856;28;20570;-60
2023/09/10 00:07:19;;;;;;;13.20;12.10;;;18.00;99.90;;;;;;5119918;28;20754;-60
2023/09/10 00:09:46;;;;;;;13.37;11.27;;;17.90;1.00;;;;;;5119884;28;20475;-60
2023/09/10 00:12:15;;;;;;;15.40;12.50;;;17.90;1.00;;;;;;5119882;28;20452;-60
2023/09/10 00:14:42;;;;;;;13.60;12.33;;;17.90;99.90;;;;;;5119831;28;20902;-60
2023/09/10 00:17:10;;;;;;;13.70;12.30;;;17.90;1.00;;;;;;5119616;28;20501;-60
2023/09/10 00:19:37;;;;;;;13.83;12.43;;;17.90;99.90;;;;;;5118977;28;20463;-60
2023/09/10 00:22:04;;;;;;;13.60;12.20;;;17.80;1.00;;;;;;5119592;28;20461;-60
2023/09/10 00:24:32;;;;;;;13.30;12.20;;;17.60;1.00;;;;;;5119553;28;20494;-60
2023/09/10 00:26:59;;;;;;;14.03;12.63;;;17.50;1.00;;;;;;5119618;28;20459;-60
2023/09/10 00:29:27;;;;;;;15.63;11.47;;;17.60;1.00;;;;;;5119386;28;20478;-60
2023/09/10 00:31:55;;;;;;;13.60;12.20;;;17.60;1.00;;;;;;5119559;28;20459;-60
2023/09/10 00:34:22;;;;;;;13.30;12.00;;;17.50;1.00;;;;;;5119632;28;20455;-60
2023/09/10 00:36:49;;;;;;;15.50;13.43;;;17.60;1.00;;;;;;5119313;28;20737;-60
2023/09/10 00:39:16;;;;;;;17.90;14.07;;;17.60;1.00;;;;;;5119310;28;20907;-60
2023/09/10 00:41:45;;;;;;;14.90;13.40;;;17.70;1.00;;;;;;5118948;28;20473;-60
2023/09/10 00:44:12;;;;;;;13.43;12.20;;;17.60;1.00;;;;;;5119485;28;20930;-60
2023/09/10 00:46:41;;;;;;;15.53;12.90;;;17.70;1.00;;;;;;5118963;28;20452;-59
2023/09/10 00:49:08;;;;;;;13.80;12.40;;;17.60;1.00;;;;;;5119176;28;20462;-60
2023/09/10 00:51:36;;;;;;;12.90;11.60;;;17.60;1.00;;;;;;5119392;28;20747;-60
2023/09/10 00:54:03;;;;;;;14.87;13.03;;;17.60;1.00;;;;;;5119145;28;20524;-60
2023/09/10 00:56:31;;;;;;;17.47;13.43;;;17.60;1.00;;;;;;5119338;28;20463;-60
2023/09/10 00:58:59;;;;;;;13.27;12.07;;;17.60;1.00;;;;;;5119272;28;20459;-60
2023/09/10 01:01:26;;;;;;;12.50;11.40;;;17.50;1.00;;;;;;5118539;28;20459;-60
2023/09/10 01:03:55;;;;;;;14.57;12.90;;;17.50;1.00;;;;;;5119053;28;20582;-60
2023/09/10 01:06:23;;;;;;;13.10;11.80;;;17.50;1.00;;;;;;5119862;28;20482;-60
2023/09/10 01:08:50;;;;;;;13.90;11.93;;;17.50;1.00;;;;;;5119581;28;20459;-60
2023/09/10 01:11:25;;;;;;;13.37;12.17;;;17.40;1.00;;;;;;5118736;28;20812;-60
2023/09/10 01:14:02;;;;;;;12.67;11.37;;;17.30;1.00;;;;;;5119285;28;20461;-60
2023/09/10 01:16:38;;;;;;;13.90;12.30;;;17.30;1.00;;;;;;5118611;28;20459;-60
2023/09/10 01:19:21;;;;;;;15.10;11.67;;;17.30;1.00;;;;;;5119409;28;20880;-60
2023/09/10 01:21:53;;;;;;;14.40;12.80;;;17.30;1.00;;;;;;5119185;28;20464;-60
2023/09/10 01:24:26;;;;;;;14.90;12.83;;;17.30;1.00;;;;;;5119613;28;20491;-60
2023/09/10 01:26:58;;;;;;;15.03;13.40;;;17.20;1.00;;;;;;5119210;28;20455;-60
2023/09/10 01:29:26;;;;;;;14.90;13.60;;;17.30;1.00;;;;;;5119374;28;20455;-60
2023/09/10 01:31:59;;;;;;;14.70;13.07;;;17.20;1.00;;;;;;5119086;28;20471;-60
2023/09/10 01:34:30;;;;;;;14.10;12.80;;;17.20;1.00;;;;;;5119306;28;20452;-60
2023/09/10 01:37:02;;;;;;;15.53;12.60;;;17.20;1.00;;;;;;5119098;28;20455;-60
2023/09/10 01:39:36;;;;;;;14.73;13.33;;;17.20;1.00;;;;;;5118870;28;20566;-60
2023/09/10 01:42:06;;;;;;;13.47;11.77;;;17.10;1.00;;;;;;5118995;28;20491;-60
2023/09/10 01:44:35;;;;;;;13.63;12.37;;;17.10;1.00;;;;;;5119238;28;20509;-60
2023/09/10 01:47:03;;;;;;;14.23;12.70;;;17.10;1.00;;;;;;5118836;28;20751;-60
2023/09/10 01:49:31;;;;;;;13.50;12.20;;;16.90;1.00;;;;;;5118887;28;20921;-60
2023/09/10 01:51:59;;;;;;;13.50;12.20;;;16.80;5.10;;;;;;5118826;28;20460;-60
2023/09/10 01:54:26;;;;;;;15.37;12.70;;;16.80;14.80;;;;;;5119123;28;20505;-60
2023/09/10 01:56:53;;;;;;;14.90;12.70;;;16.70;54.20;;;;;;5120606;28;20546;-60
2023/09/10 01:59:21;;;;;;;13.80;12.60;;;16.70;90.30;;;;;;5121751;28;20465;-60
2023/09/10 02:01:49;;;;;;;14.00;12.60;;;16.70;99.90;;;;;;5122710;28;20851;-60
2023/09/10 02:04:16;;;;;;;14.93;13.43;;;16.80;85.00;;;;;;5122594;28;20484;-60
2023/09/10 02:06:43;;;;;;;14.80;13.40;;;16.80;71.70;;;;;;5122501;28;20752;-60
2023/09/10 02:09:10;;;;;;;18.53;13.50;;;16.80;64.70;;;;;;5122121;28;20461;-60
2023/09/10 02:11:37;;;;;;;15.97;14.37;;;16.90;46.70;;;;;;5122041;28;20461;-60
2023/09/10 02:14:04;;;;;;;15.73;14.23;;;16.90;3.10;;;;;;5122080;28;20463;-60
2023/09/10 02:16:33;;;;;;;14.40;13.10;;;16.90;18.20;;;;;;5120456;28;20458;-60
2023/09/10 02:19:00;;;;;;;15.63;14.03;;;16.90;1.00;;;;;;5120727;28;20466;-60
2023/09/10 02:21:27;;;;;;;14.90;13.40;;;16.80;1.00;;;;;;5120296;28;20754;-60
2023/09/10 02:23:54;;;;;;;13.80;12.47;;;16.80;1.00;;;;;;5120453;28;20546;-60
2023/09/10 02:26:21;;;;;;;14.90;13.60;;;16.80;7.00;;;;;;5120231;28;20488;-60
2023/09/10 02:28:48;;;;;;;14.57;13.07;;;16.80;1.00;;;;;;5120057;28;20466;-59
2023/09/10 02:31:16;;;;;;;15.47;14.00;;;16.70;43.60;;;;;;5119906;28;20522;-60
2023/09/10 02:33:44;;;;;;;14.57;13.33;;;16.60;61.60;;;;;;5121521;28;20460;-60
2023/09/10 02:36:11;;;;;;;13.97;12.77;;;16.50;99.90;;;;;;5122181;28;20456;-60
2023/09/10 02:38:39;;;;;;;14.37;12.97;;;16.50;99.90;;;;;;5124864;27;20521;-60
2023/09/10 02:41:06;;;;;;;14.60;13.20;;;16.60;99.90;;;;;;5142336;27;20887;-60
2023/09/10 02:43:33;;;;;;;13.80;12.63;;;16.60;86.70;;;;;;5142277;27;20461;-60
2023/09/10 02:46:00;;;;;;;13.70;12.50;;;16.60;40.70;;;;;;5142162;27;20496;-60
2023/09/10 02:48:27;;;;;;;16.37;12.90;;;16.60;6.00;;;;;;5142033;27;20458;-60
2023/09/10 02:50:56;;;;;;;13.57;12.17;;;16.70;1.00;;;;;;5142122;27;20459;-60
2023/09/10 02:53:24;;;;;;;14.13;12.80;;;16.60;1.00;;;;;;5142067;27;20459;-60
2023/09/10 02:56:00;;;;;;;14.50;12.60;;;16.60;4.10;;;;;;5141956;27;20465;-60
2023/09/10 02:58:27;;;;;;;15.07;12.57;;;16.60;1.00;;;;;;5141927;27;20458;-60
2023/09/10 03:00:54;;;;;;;15.93;13.30;;;16.40;30.90;;;;;;5142056;27;20465;-60
2023/09/10 03:03:21;;;;;;;15.70;14.40;;;16.40;84.70;;;;;;5141070;27;20948;-60
2023/09/10 03:05:48;;;;;;;14.10;12.80;;;16.30;93.20;;;;;;5141711;27;20490;-60
2023/09/10 03:08:17;;;;;;;15.50;13.77;;;16.30;99.90;;;;;;5140250;27;20455;-60
2023/09/10 03:10:44;;;;;;;16.13;14.40;;;16.30;99.90;;;;;;5141696;27;20454;-60
2023/09/10 03:13:11;;;;;;;15.97;14.50;;;16.30;99.90;;;;;;5141201;27;20455;-60
2023/09/10 03:15:38;;;;;;;14.27;12.97;;;16.30;99.90;;;;;;5141403;27;20456;-60
2023/09/10 03:18:05;;;;;;;15.63;14.10;;;16.30;99.90;;;;;;5140762;27;20956;-61
2023/09/10 03:20:33;;;;;;;14.43;13.13;;;16.30;99.90;;;;;;5141123;27;20569;-60
2023/09/10 03:23:02;;;;;;;16.93;14.00;;;16.20;99.90;;;;;;5141392;27;20454;-60
2023/09/10 03:25:30;;;;;;;15.00;13.60;;;16.30;1.00;;;;;;5140771;27;20490;-60
2023/09/10 03:27:58;;;;;;;15.10;13.50;;;16.40;1.00;;;;;;5141163;27;20458;-61
2023/09/10 03:30:25;;;;;;;14.20;12.80;;;16.40;1.00;;;;;;5140930;27;20594;-60
2023/09/10 03:32:52;;;;;;;15.17;13.80;;;16.40;1.00;;;;;;5140872;27;20455;-60
2023/09/10 03:35:20;;;;;;;15.50;14.00;;;16.40;1.00;;;;;;5140410;27;20454;-60
2023/09/10 03:37:47;;;;;;;15.30;13.80;;;16.40;1.00;;;;;;5140702;27;20465;-60
2023/09/10 03:40:19;;;;;;;14.37;13.07;;;16.40;1.00;;;;;;5140424;27;20489;-60
2023/09/10 03:42:48;;;;;;;17.40;13.63;;;16.30;1.00;;;;;;5140692;27;20778;-60
2023/09/10 03:45:15;;;;;;;14.63;13.33;;;16.20;1.00;;;;;;5140281;27;20536;-61
2023/09/10 03:47:42;;;;;;;15.30;13.83;;;16.10;1.00;;;;;;5140315;27;20465;-60
2023/09/10 03:50:11;;;;;;;15.60;14.20;;;16.10;1.00;;;;;;5140632;27;20461;-60
2023/09/10 03:52:38;;;;;;;15.37;13.90;;;16.10;1.00;;;;;;5140642;27;20772;-60
2023/09/10 03:55:06;;;;;;;15.80;14.40;;;16.10;1.00;;;;;;5140503;27;20430;-60
2023/09/10 03:57:33;;;;;;;15.40;14.00;;;16.10;1.00;;;;;;5139721;27;20454;-60
2023/09/10 04:00:03;;;;;;;14.17;12.90;;;16.10;1.00;;;;;;5140118;27;20454;-61
2023/09/10 04:02:30;;;;;;;15.70;14.30;;;16.10;1.00;;;;;;5140285;27;20458;-60
2023/09/10 04:04:57;;;;;;;15.97;14.47;;;16.10;1.00;;;;;;5139658;27;20524;-61
2023/09/10 04:07:25;;;;;;;14.80;13.37;;;15.90;1.00;;;;;;5139544;27;20466;-60
2023/09/10 04:09:52;;;;;;;15.47;14.10;;;16.00;1.00;;;;;;5139892;27;20461;-60
2023/09/10 04:12:19;;;;;;;15.20;13.90;;;16.00;1.00;;;;;;5139663;27;20451;-61
2023/09/10 04:14:46;;;;;;;14.40;13.17;;;16.00;1.00;;;;;;5139365;27;20829;-60
2023/09/10 04:17:18;;;;;;;15.40;13.57;;;16.00;1.00;;;;;;5139134;27;20454;-60
2023/09/10 04:19:45;;;;;;;14.80;13.50;;;16.00;1.00;;;;;;5139115;27;20458;-60
2023/09/10 04:22:13;;;;;;;16.27;14.00;;;16.00;1.00;;;;;;5139658;27;20455;-60
2023/09/10 04:24:40;;;;;;;19.73;13.53;;;16.10;1.00;;;;;;5139658;27;20486;-60
2023/09/10 04:27:07;;;;;;;14.23;13.00;;;16.10;1.00;;;;;;5139061;27;20455;-60
2023/09/10 04:29:34;;;;;;;16.30;14.80;;;16.10;1.00;;;;;;5139315;27;20455;-60
2023/09/10 04:32:02;;;;;;;15.43;14.00;;;16.00;1.00;;;;;;5139479;27;20454;-61
2023/09/10 04:34:30;;;;;;;15.57;13.90;;;15.90;1.00;;;;;;5139045;27;20523;-61
2023/09/10 04:36:57;;;;;;;15.47;13.97;;;15.80;70.40;;;;;;5139682;27;20451;-60
2023/09/10 04:39:24;;;;;;;15.90;14.40;;;15.80;83.50;;;;;;5138817;27;20489;-61
2023/09/10 04:41:53;;;;;;;15.87;14.30;;;15.90;1.00;;;;;;5138949;27;20553;-61
2023/09/10 04:44:21;;;;;;;18.20;14.10;;;16.00;1.00;;;;;;5139239;27;20752;-60
2023/09/10 04:46:48;;;;;;;15.87;13.90;;;16.00;1.00;;;;;;5138573;27;20479;-61
2023/09/10 04:49:15;;;;;;;15.97;14.40;;;16.00;1.00;;;;;;5138965;27;20451;-60
2023/09/10 04:51:44;;;;;;;15.27;13.80;;;16.00;1.00;;;;;;5138960;27;20459;-60
2023/09/10 04:54:11;;;;;;;15.70;14.30;;;16.00;1.00;;;;;;5138280;27;20554;-60
2023/09/10 04:56:38;;;;;;;15.50;14.10;;;16.00;1.00;;;;;;5138866;27;20455;-60
2023/09/10 04:59:05;;;;;;;14.63;13.43;;;15.80;1.00;;;;;;5138569;28;20459;-60
2023/09/10 05:01:32;;;;;;;16.10;14.50;;;15.80;1.00;;;;;;5139044;28;20458;-61
2023/09/10 05:03:59;;;;;;;15.83;14.43;;;15.70;1.00;;;;;;5138327;28;20458;-60
2023/09/10 05:06:26;;;;;;;16.33;14.43;;;15.80;1.00;;;;;;5138144;28;20528;-60
2023/09/10 05:08:55;;;;;;;17.00;14.33;;;15.90;1.00;;;;;;5138521;28;20890;-60
2023/09/10 05:11:22;;;;;;;15.10;13.80;;;15.90;1.00;;;;;;5138495;28;20548;-60
2023/09/10 05:13:49;;;;;;;17.60;16.00;;;15.90;1.00;;;;;;5138537;28;20829;-60
2023/09/10 05:16:16;;;;;;;16.20;14.60;;;16.00;1.00;;;;;;5137244;28;20461;-60
2023/09/10 05:18:44;;;;;;;17.03;15.27;;;16.10;1.00;;;;;;5138385;28;20458;-60
2023/09/10 05:21:11;;;;;;;16.17;14.60;;;16.10;1.00;;;;;;5138918;28;20480;-60
2023/09/10 05:23:38;;;;;;;16.33;14.80;;;16.10;1.00;;;;;;5138469;28;20775;-60
2023/09/10 05:26:07;;;;;;;16.27;14.87;;;16.20;1.00;;;;;;5138653;28;20486;-60
2023/09/10 05:28:34;;;;;;;16.27;14.87;;;16.20;1.00;;;;;;5138446;28;20439;-60
2023/09/10 05:31:04;;;;;;;16.57;15.00;;;16.20;1.00;;;;;;5138653;27;20429;-60
2023/09/10 05:33:33;;;;;;;16.33;14.87;;;16.20;1.00;;;;;;5142368;27;20458;-61
2023/09/10 05:36:02;;;;;;;17.87;16.10;;;16.30;1.00;;;;;;5142544;27;20462;-61
2023/09/10 05:38:29;;;;;;;16.37;14.97;;;16.20;1.00;;;;;;5141717;27;20553;-60
2023/09/10 05:41:02;;;;;;;17.13;15.40;;;16.30;1.00;;;;;;5142587;27;20860;-60
2023/09/10 05:43:31;;;;;;;17.67;15.90;;;16.30;1.00;;;;;;5142669;27;20454;-60
2023/09/10 05:45:58;;;;;;;20.53;15.40;;;16.30;1.00;;;;;;5142353;27;20774;-60
2023/09/10 05:48:25;;;;;;;17.37;15.57;;;16.40;1.00;;;;;;5142116;27;20462;-60
2023/09/10 05:50:56;;;;;;;17.37;15.67;;;16.50;1.00;;;;;;5142089;27;20455;-60
2023/09/10 05:53:24;;;;;;;17.40;15.90;;;16.60;1.00;;;;;;5123642;27;20462;-60
2023/09/10 05:55:51;;;;;;;15.60;14.20;;;16.60;1.00;;;;;;5121938;28;20458;-60
2023/09/10 05:58:19;;;;;;;15.53;14.13;;;16.70;1.00;;;;;;5121621;28;20470;-59
2023/09/10 06:00:47;;;;;;;16.83;15.23;;;16.80;1.00;;;;;;5121048;28;20539;-60
2023/09/10 06:03:14;;;;;;;17.07;15.77;;;16.90;1.00;;;;;;5121268;28;20455;-60
2023/09/10 06:05:42;;;;;;;20.53;16.50;;;17.00;1.00;;;;;;5120972;28;20493;-60
2023/09/10 06:08:09;;;;;;;18.50;16.63;;;17.10;1.00;;;;;;5120830;28;20478;-60
2023/09/10 06:10:36;;;;;;;17.80;16.13;;;17.10;1.00;;;;;;5121055;28;20455;-60
2023/09/10 06:13:03;;;;;;;18.13;16.50;;;17.20;1.00;;;;;;5121242;27;20497;-60
2023/09/10 06:15:31;;;;;;;16.90;15.40;;;17.30;1.00;;;;;;5121415;28;20840;-60
2023/09/10 06:17:59;;;;;;;17.70;16.20;;;17.40;1.00;;;;;;5121753;28;20733;-60
2023/09/10 06:20:26;;;;;;;18.70;17.00;;;17.50;1.00;;;;;;5120102;28;20745;-60
2023/09/10 06:22:53;;;;;;;18.73;17.00;;;17.60;1.00;;;;;;5120939;28;20455;-60
2023/09/10 06:25:21;;;;;;;17.50;15.90;;;17.70;1.00;;;;;;5120918;28;20455;-61
2023/09/10 06:27:48;;;;;;;17.80;16.20;;;17.80;1.00;;;;;;5121066;28;20462;-61
2023/09/10 06:30:15;;;;;;;17.20;15.63;;;17.90;99.90;;;;;;5120819;28;20914;-61
2023/09/10 06:32:42;;;;;;;18.13;16.73;;;18.10;99.90;;;;;;5120652;28;20759;-61
2023/09/10 06:35:11;;;;;;;17.07;15.60;;;18.20;1.00;;;;;;5121371;28;20462;-61
2023/09/10 06:37:40;;;;;;;17.83;16.10;;;18.40;1.00;;;;;;5121479;28;20451;-61
2023/09/10 06:40:08;;;;;;;18.90;17.20;;;18.50;99.90;;;;;;5137087;27;20923;-61
2023/09/10 06:42:36;;;;;;;16.77;15.27;;;18.60;99.90;;;;;;5141140;27;20549;-61
2023/09/10 06:45:04;;;;;;;18.00;16.40;;;18.60;99.90;;;;;;5142224;27;20810;-61
2023/09/10 06:47:31;;;;;;;16.40;14.97;;;18.80;99.90;;;;;;5142392;27;20486;-61
2023/09/10 06:49:58;;;;;;;17.57;15.70;;;19.10;99.90;;;;;;5142717;27;20465;-61
2023/09/10 06:52:27;;;;;;;17.40;15.77;;;19.30;99.90;;;;;;5142274;27;20457;-61
2023/09/10 06:54:55;;;;;;;17.60;16.10;;;19.50;99.90;;;;;;5142440;27;20860;-61
2023/09/10 06:57:22;;;;;;;17.17;15.50;;;19.70;99.90;;;;;;5143435;27;20450;-61
2023/09/10 06:59:49;;;;;;;20.83;18.93;;;19.80;99.90;;;;;;5142472;27;20842;-61
2023/09/10 07:02:16;;;;;;;19.20;17.60;;;19.90;99.90;;;;;;5141508;27;20462;-58
2023/09/10 07:04:47;;;;;;;18.00;16.40;;;20.10;99.90;;;;;;5130442;27;20522;-61
2023/09/10 07:07:14;;;;;;;21.60;18.00;;;20.30;99.90;;;;;;5123764;27;20527;-61
2023/09/10 07:09:43;;;;;;;17.07;15.67;;;20.60;71.10;;;;;;5132269;27;20461;-61
2023/09/10 07:12:10;;;;;;;17.33;15.70;;;20.80;2.30;;;;;;5130660;27;20443;-61
2023/09/10 07:14:37;;;;;;;17.10;15.60;;;21.00;1.00;;;;;;5131124;27;20454;-61
2023/09/10 07:17:06;;;;;;;18.80;15.93;;;21.20;1.00;;;;;;5133105;27;20452;-60
2023/09/10 07:19:33;;;;;;;17.37;15.77;;;21.30;1.00;;;;;;5132137;27;20848;-61
2023/09/10 07:22:00;;;;;;;18.40;16.80;;;21.50;1.00;;;;;;5130411;27;20661;-61
2023/09/10 07:24:27;;;;;;;16.67;15.17;;;21.80;1.00;;;;;;5129130;27;20515;-60
2023/09/10 07:26:58;;;;;;;16.03;14.83;;;21.90;1.00;;;;;;5127575;27;20492;-60
2023/09/10 07:29:25;;;;;;;18.27;16.60;;;22.10;1.00;;;;;;5122637;28;20487;-61
2023/09/10 07:31:52;;;;;;;16.57;15.17;;;22.20;1.00;;;;;;5122762;28;20451;-61
2023/09/10 07:34:21;;;;;;;17.07;15.57;;;22.50;1.00;;;;;;5123998;28;20470;-61
2023/09/10 07:36:48;;;;;;;15.83;14.40;;;22.70;99.90;;;;;;5123572;28;20455;-61
2023/09/10 07:39:18;;;;;;;17.03;15.73;;;23.00;99.90;;;;;;5115075;28;20597;-61
2023/09/10 07:41:46;;;;;;;15.10;13.90;;;22.80;1.00;;;;;;5102497;28;20488;-61
2023/09/10 07:44:14;;;;;;;15.50;13.90;;;23.00;99.90;;;;;;5102044;28;20509;-61
2023/09/10 07:46:41;;;;;;;16.00;14.70;;;23.40;99.90;;;;;;5101942;28;20535;-61
2023/09/10 07:49:08;;;;;;;15.40;13.90;;;23.80;99.90;;;;;;5101943;28;20462;-61
2023/09/10 07:51:35;;;;;;;15.00;13.60;;;24.10;99.90;;;;;;5100797;28;20547;-61
2023/09/10 07:54:03;;;;;;;15.33;14.03;;;24.30;99.90;;;;;;5101237;28;20756;-61
2023/09/10 07:56:30;;;;;;;18.40;15.47;;;24.40;1.00;;;;;;5101938;28;20475;-61
2023/09/10 07:58:58;;;;;;;14.00;12.70;;;24.60;1.00;;;;;;5101564;28;20456;-61
2023/09/10 08:01:26;;;;;;;17.67;13.47;;;24.80;1.00;;;;;;5100642;28;20471;-61
2023/09/10 08:03:53;;;;;;;14.93;13.33;;;25.10;1.10;;;;;;5100118;28;20816;-61
2023/09/10 08:06:21;;;;;;;16.40;14.70;;;25.30;1.00;;;;;;5100613;28;20488;-61
2023/09/10 08:08:48;;;;;;;15.80;14.20;;;25.60;1.00;;;;;;5100032;28;20464;-61
2023/09/10 08:11:15;;;;;;;19.47;16.50;;;25.90;1.00;;;;;;5099798;28;20461;-61
2023/09/10 08:13:43;;;;;;;15.47;13.97;;;26.10;1.00;;;;;;5098861;28;20541;-61
2023/09/10 08:16:13;;;;;;;14.83;13.63;;;26.30;99.90;;;;;;5098312;28;20466;-61
2023/09/10 08:18:42;;;;;;;16.50;14.10;;;26.40;99.90;;;;;;5098824;28;20836;-61
2023/09/10 08:21:09;;;;;;;17.00;13.60;;;26.60;99.90;;;;;;5098820;28;20511;-61
2023/09/10 08:23:36;;;;;;;15.03;13.10;;;26.80;99.90;;;;;;5098621;28;20873;-61
2023/09/10 08:26:03;;;;;;;14.93;13.37;;;26.90;99.90;;;;;;5098135;28;20460;-61
2023/09/10 08:28:30;;;;;;;13.60;12.47;;;27.10;99.90;;;;;;5098175;28;20453;-62
2023/09/10 08:30:58;;;;;;;15.00;13.70;;;27.20;53.10;;;;;;5098161;28;20543;-62
2023/09/10 08:33:26;;;;;;;16.43;13.10;;;27.20;1.00;;;;;;5098027;28;20458;-62
2023/09/10 08:35:56;;;;;;;13.43;12.30;;;27.40;1.00;;;;;;5097605;28;20471;-62
2023/09/10 08:38:24;;;;;;;14.03;12.70;;;27.20;1.00;;;;;;5091745;28;20457;-61
2023/09/10 08:41:01;;;;;;;14.07;12.77;;;27.60;39.30;;;;;;5113369;28;20528;-61
2023/09/10 08:43:37;;;;;;;14.40;11.73;;;27.90;1.00;;;;;;5116751;28;20504;-62
2023/09/10 08:46:07;;;;;;;13.13;11.93;;;28.00;1.00;;;;;;5115755;28;20546;-61
2023/09/10 08:48:36;;;;;;;12.10;10.93;;;28.20;1.00;;;;;;5117893;28;20463;-62
2023/09/10 08:51:06;;;;;;;11.73;10.60;;;28.30;99.90;;;;;;5117235;28;20505;-62
2023/09/10 08:53:34;;;;;;;11.20;10.27;;;28.30;1.00;;;;;;5117698;28;20462;-62
2023/09/10 08:56:03;;;;;;;12.20;11.00;;;28.70;99.90;;;;;;5117714;28;20545;-62
2023/09/10 08:58:32;;;;;;;12.50;11.40;;;29.10;1.00;;;;;;5118096;28;20478;-62
2023/09/10 09:01:01;;;;;;;18.70;9.90;;;29.50;1.00;;;;;;5117684;28;20456;-62
2023/09/10 09:03:30;;;;;;;13.73;10.17;;;29.70;99.90;;;;;;5117615;28;20455;-62
2023/09/10 09:05:59;;;;;;;12.07;10.13;;;29.90;99.90;;;;;;5119934;28;20452;-62
2023/09/10 09:08:32;;;;;;;10.30;9.20;;;30.10;99.90;;;;;;5121804;28;20943;-62
2023/09/10 09:11:03;;;;;;;16.60;10.10;;;30.20;99.90;;;;;;5121585;28;20552;-62
2023/09/10 09:13:34;;;;;;;11.00;9.10;;;30.20;99.90;;;;;;5121364;28;20466;-62
2023/09/10 09:16:03;;;;;;;12.33;8.63;;;30.40;99.90;;;;;;5119931;28;20463;-62
2023/09/10 09:18:31;;;;;;;15.23;8.50;;;30.60;99.90;;;;;;5120743;28;20891;-62
2023/09/10 09:21:03;;;;;;;14.90;9.13;;;30.80;20.70;;;;;;5120981;28;20512;-63
2023/09/10 09:23:36;;;;;;;17.00;8.20;;;30.90;1.00;;;;;;5121386;28;20869;-63
2023/09/10 09:26:04;;;;;;;18.23;9.20;;;30.60;1.00;;;;;;5120509;28;20742;-63
2023/09/10 09:28:32;;;;;;;15.07;7.67;;;31.00;1.00;;;;;;5119813;28;20490;-63
2023/09/10 09:30:59;;;;;;;16.10;8.13;;;31.20;1.00;;;;;;5118502;28;20882;-63
2023/09/10 09:33:27;;;;;;;12.90;8.60;;;31.40;1.00;;;;;;5105776;28;20510;-63
2023/09/10 09:35:54;;;;;;;18.70;9.37;;;30.90;1.00;;;;;;5098140;28;20456;-63
2023/09/10 09:38:21;;;;;;;11.37;8.63;;;31.00;99.90;;;;;;5098072;28;20798;-64
2023/09/10 09:40:50;;;;;;;11.80;8.80;;;31.50;1.00;;;;;;5098640;28;20558;-63
2023/09/10 09:43:17;;;;;;;12.17;9.20;;;31.80;1.00;;;;;;5118327;27;20474;-63
2023/09/10 09:45:45;;;;;;;12.63;9.53;;;32.10;99.90;;;;;;5138410;27;20457;-63
2023/09/10 09:48:13;;;;;;;11.67;8.47;;;32.20;99.90;;;;;;5138927;27;20971;-64
2023/09/10 09:50:40;;;;;;;9.97;8.63;;;32.00;99.90;;;;;;5139510;27;20460;-64
2023/09/10 09:53:07;;;;;;;11.70;8.10;;;32.30;99.90;;;;;;5139500;27;20449;-64
2023/09/10 09:55:35;;;;;;;11.93;8.77;;;32.40;99.90;;;;;;5140059;27;20556;-64
2023/09/10 09:58:05;;;;;;;13.53;8.63;;;32.50;99.90;;;;;;5115860;27;20527;-63
2023/09/10 10:00:37;;;;;;;16.77;9.00;;;32.00;99.90;;;;;;5119500;28;20454;-63
2023/09/10 10:03:04;;;;;;;14.10;9.00;;;32.20;99.90;;;;;;5119164;28;20459;-62
2023/09/10 10:05:32;;;;;;;14.73;8.93;;;32.60;1.00;;;;;;5119572;28;20944;-62
2023/09/10 10:08:00;;;;;;;17.90;9.70;;;32.90;99.90;;;;;;5120228;28;20620;-63
2023/09/10 10:10:27;;;;;;;11.47;9.30;;;33.10;99.90;;;;;;5119643;28;20468;-63
2023/09/10 10:12:55;;;;;;;9.07;8.27;;;33.30;99.90;;;;;;5119754;28;20491;-62
2023/09/10 10:15:26;;;;;;;11.70;8.43;;;33.50;99.90;;;;;;5118927;28;20454;-62
2023/09/10 10:17:54;;;;;;;16.93;8.90;;;33.20;99.90;;;;;;5118454;28;20446;-62
2023/09/10 10:20:22;;;;;;;11.50;7.90;;;33.30;99.90;;;;;;5118756;28;20466;-62
2023/09/10 10:22:51;;;;;;;17.13;7.70;;;32.80;99.90;;;;;;5133424;27;20537;-62
2023/09/10 10:25:18;;;;;;;11.77;8.57;;;32.50;99.90;;;;;;5138107;27;20454;-63
2023/09/10 10:27:47;;;;;;;17.90;8.90;;;32.20;99.90;;;;;;5138286;27;20612;-62
2023/09/10 10:30:15;;;;;;;10.23;6.87;;;32.60;99.90;;;;;;5140022;27;20510;-62
2023/09/10 10:32:46;;;;;;;11.27;8.00;;;33.20;99.90;;;;;;5139443;27;20489;-62
2023/09/10 10:35:14;;;;;;;11.57;6.27;;;33.70;99.90;;;;;;5140281;27;20458;-62
2023/09/10 10:37:48;;;;;;;16.10;7.67;;;34.10;1.00;;;;;;5139663;27;20445;-62
2023/09/10 10:40:19;;;;;;;10.73;7.20;;;33.80;1.00;;;;;;5139284;27;20492;-62
2023/09/10 10:42:51;;;;;;;16.60;7.87;;;34.30;1.00;;;;;;5139413;27;20433;-62
2023/09/10 10:45:20;;;;;;;11.60;8.13;;;34.50;99.90;;;;;;5139504;27;20255;-61
2023/09/10 10:47:49;;;;;;;11.30;7.55;;;34.80;99.90;;;;;;5140303;27;20490;-62
2023/09/10 10:50:25;;;;;;;17.13;7.53;;;35.00;99.90;;;;;;5140261;27;20205;-62
2023/09/10 10:52:56;;;;;;;9.40;8.23;;;35.10;99.90;;;;;;5139868;27;20203;-62
2023/09/10 10:55:25;;;;;;;12.93;8.07;;;35.40;99.90;;;;;;5138727;27;20204;-62
2023/09/10 10:57:53;;;;;;;13.15;7.25;;;35.40;99.90;;;;;;5138744;27;20205;-63
2023/09/10 11:00:20;;;;;;;12.55;7.40;;;35.30;99.90;;;;;;5139075;27;20200;-60
2023/09/10 11:03:08;;;;;;;11.80;7.13;;;35.40;99.90;;;;;;5139051;27;20299;-62
2023/09/10 11:06:06;;;;;;;11.52;7.30;;;35.40;99.90;;;;;;5139053;27;20205;-62
2023/09/10 11:08:37;;;;;;;8.05;7.22;;;35.50;99.90;;;;;;5138874;27;20323;-63
2023/09/10 11:11:05;;;;;;;12.93;8.88;;;35.40;99.90;;;;;;5140341;27;20204;-63
2023/09/10 11:13:33;;;;;;;12.90;7.80;;;34.50;62.10;;;;;;5139252;27;20621;-63
2023/09/10 11:16:17;;;;;;;11.50;8.32;;;34.70;64.80;;;;;;5138440;27;20240;-62
2023/09/10 11:18:46;;;;;;;9.57;7.72;;;35.30;66.00;;;;;;5139927;27;20470;-62
2023/09/10 11:21:15;;;;;;;10.18;7.43;;;35.40;99.90;;;;;;5139641;27;20257;-61
2023/09/10 11:24:20;;;;;;;12.60;7.43;;;35.10;99.90;;;;;;5139576;27;20210;-62
2023/09/10 11:26:48;;;;;;;9.48;7.80;;;34.90;99.40;;;;;;5139732;27;20254;-62
2023/09/10 11:29:18;;;;;;;13.43;8.52;;;35.20;99.90;;;;;;5137898;27;20259;-62
2023/09/10 11:31:47;;;;;;;13.57;7.65;;;35.20;95.60;;;;;;5138635;27;20207;-62
2023/09/10 11:34:40;;;;;;;9.80;8.05;;;35.60;99.90;;;;;;5137607;27;20291;-62
2023/09/10 11:37:11;;;;;;;16.70;7.75;;;35.60;74.70;;;;;;5112929;27;20290;-62
2023/09/10 11:39:38;;;;;;;13.45;7.43;;;35.70;96.60;;;;;;5137504;27;20232;-62
2023/09/10 11:42:11;;;;;;;11.30;10.30;;;35.50;28.20;;;;;;5137713;27;20639;-60
2023/09/10 11:44:38;;;;;;;15.02;8.93;;;35.60;32.00;;;;;;5138471;27;20577;-61
2023/09/10 11:47:06;;;;;;;15.35;8.10;;;35.90;47.00;;;;;;5138111;27;20204;-62
2023/09/10 11:49:33;;;;;;;10.05;7.68;;;34.90;28.10;;;;;;5112564;27;20205;-62
2023/09/10 11:52:02;;;;;;;8.45;7.65;;;34.60;16.50;;;;;;5106592;28;20237;-62
2023/09/10 11:54:31;;;;;;;9.60;8.13;;;35.20;12.40;;;;;;5118772;28;20292;-61
2023/09/10 11:56:59;;;;;;;8.93;8.02;;;35.60;18.30;;;;;;5118413;28;20205;-61
2023/09/10 11:59:30;;;;;;;8.95;7.82;;;34.70;1.00;;;;;;5117920;28;20304;-62
2023/09/10 12:01:57;;;;;;;9.77;7.40;;;33.80;1.00;;;;;;5110123;28;20201;-62
2023/09/10 12:04:31;;;;;;;11.30;7.73;;;33.00;1.00;;;;;;5100455;28;20206;-62
2023/09/10 12:06:59;;;;;;;11.10;7.10;;;32.70;1.00;;;;;;5110002;28;20802;-62
2023/09/10 12:09:31;;;;;;;14.47;7.30;;;32.60;1.00;;;;;;5117718;28;20960;-61
2023/09/10 12:12:04;;;;;;;17.00;7.30;;;33.70;1.00;;;;;;5118222;28;20753;-61
2023/09/10 12:14:31;;;;;;;11.70;7.30;;;34.50;1.00;;;;;;5118575;28;20880;-61
2023/09/10 12:16:59;;;;;;;10.17;7.90;;;35.10;1.00;;;;;;5118279;28;20491;-61
2023/09/10 12:19:27;;;;;;;10.77;6.20;;;35.40;1.00;;;;;;5117928;28;20451;-61
2023/09/10 12:21:54;;;;;;;9.77;6.82;;;35.70;14.30;;;;;;5116460;28;20773;-62
2023/09/10 12:24:22;;;;;;;11.20;7.40;;;35.70;1.00;;;;;;5117380;28;20232;-62
2023/09/10 12:26:51;;;;;;;10.82;7.88;;;35.90;20.70;;;;;;5118264;27;20639;-62
2023/09/10 12:29:18;;;;;;;10.98;7.72;;;36.30;22.50;;;;;;5117146;28;20248;-61
2023/09/10 12:31:45;;;;;;;10.77;7.43;;;36.30;7.50;;;;;;5117241;28;20250;-62
2023/09/10 12:34:14;;;;;;;10.63;7.47;;;36.00;1.80;;;;;;5117647;28;20581;-61
2023/09/10 12:36:42;;;;;;;10.13;7.95;;;34.80;1.00;;;;;;5117365;28;20555;-62
2023/09/10 12:39:19;;;;;;;9.13;7.17;;;33.50;1.00;;;;;;5117195;28;20237;-61
2023/09/10 12:41:50;;;;;;;10.20;7.17;;;33.50;1.00;;;;;;5117166;28;20205;-62
2023/09/10 12:44:18;;;;;;;8.33;7.53;;;33.70;1.00;;;;;;5117775;28;20482;-61